Nearby METAR Reports

 

KDVT - Phoenix/Deer Vly, Arizona, USA
Distance from station: SSE 14mi, 22km
Updated: 12/11/2018 3:53pm
Clear
Clear
 Wind from E
Wind: E 6 mph , 9 km/h
Temperature: 70°F , 21°C
Dew Point: 36°F , 2°C
Humidity: 29%
Barometer: 29.98 inHg , 1015.2 hPa
Clouds: Clear
Visibility: 10 miles , 16 km
2018/12/11 22:53 KDVT 112253Z 09005KT 10SM CLR 21/02 A2998 RMK AO2 SLP137 T02060017
KSDL - Scottsdale, Arizona, USA
Distance from station: SE 22mi, 35km
Updated: 12/11/2018 3:53pm
Clear
Clear
 Wind from E
Wind: E 7 mph , 11 km/h
Temperature: 70°F , 21°C
Dew Point: 34°F , 1°C
Humidity: 27%
Barometer: 29.99 inHg , 1015.6 hPa
Clouds: Clear
Visibility: 10 miles , 16 km
2018/12/11 22:53 KSDL 112253Z 09006KT 10SM CLR 21/01 A2999 RMK AO2 SLP141 T02060006
 
KGEU - Glendale, Arizona, USA
Distance from station: SSW 25mi, 41km
Updated: 12/11/2018 3:55pm
Mostly cloudy
Mostly cloudy
 Wind from varies
Wind: varies 3 mph , 6 km/h
Temperature: 70°F , 21°C
Dew Point: 36°F , 2°C
Humidity: 29%
Barometer: 29.99 inHg , 1015.6 hPa
Clouds: Mostly cloudy
Visibility: 10 miles , 16 km
Cloud details: Mostly cloudy 12000 ft
Mostly cloudy 20000 ft
2018/12/11 22:55 KGEU 112255Z VRB03KT 10SM BKN120 BKN200 21/02 A2999
KLUF - Luke Afb/Glendal, Arizona, USA
Distance from station: SSW 28mi, 45km
Updated: 12/11/2018 2:58pm
Clear
Clear
 Wind from NE
Wind: NE 3 mph , 6 km/h
Temperature: 68°F , 20°C
Dew Point: 37°F , 3°C
Humidity: 33%
Barometer: 29.96 inHg , 1014.6 hPa
Clouds: Clear
Visibility: 10 miles , 16 km
2018/12/11 21:58 KLUF 112158Z COR 05003KT 10SM CLR 20/03 A2996 RMK AO2A SLP142 T02030026 $ COR 2210
 
KPHX - Phoenix/Sky Hrbr, Arizona, USA
Distance from station: SSE 31mi, 51km
Updated: 12/11/2018 3:51pm
Mostly cloudy
Mostly cloudy
 Wind from SSE
Wind: SSE 8 mph , 13 km/h
Temperature: 70°F , 21°C
Dew Point: 36°F , 2°C
Humidity: 29%
Barometer: 29.95 inHg , 1014.2 hPa
Clouds: Mostly cloudy
Visibility: 10 miles , 16 km
Cloud details: Few Clouds 12000 ft
Mostly cloudy 17000 ft
Mostly cloudy 23000 ft
2018/12/11 22:51 KPHX 112251Z 15007KT 10SM FEW120 BKN170 BKN230 21/02 A2995 RMK AO2 SLP133 T02060017
KGYR - Goodyear Municip, Arizona, USA
Distance from station: SSW 34mi, 55km
Updated: 12/11/2018 3:47pm
Mostly cloudy
Mostly cloudy
 Wind from SE
Wind: SE 7 mph , 11 km/h
Temperature: 68°F , 20°C
Dew Point: 39°F , 4°C
Humidity: 35%
Barometer: 29.98 inHg , 1015.2 hPa
Clouds: Mostly cloudy
Visibility: 10 miles , 16 km
Cloud details: Partly cloudy 7000 ft
Mostly cloudy 15000 ft
Mostly cloudy 20000 ft
2018/12/11 22:47 KGYR 112247Z 14006KT 10SM SCT070 BKN150 BKN200 20/04 A2998
 
KFFZ - Mesa/Falcon Fld, Arizona, USA
Distance from station: SE 37mi, 60km
Updated: 12/11/2018 3:54pm
Clear
Clear
 Wind from E
Wind: E 5 mph , 7 km/h
Temperature: 68°F , 20°C
Dew Point: 34°F , 1°C
Humidity: 28%
Barometer: 29.98 inHg , 1015.2 hPa
Clouds: Clear
Visibility: 10 miles , 16 km
2018/12/11 22:54 KFFZ 112254Z AUTO 08004KT 10SM CLR 20/01 A2998 RMK AO2 SLP136 T02000006
KBXK - Buckeye, Arizona, USA
Distance from station: SW 45mi, 72km
Updated: 12/11/2018 9:55am
NOT Current

 
2018/12/11 16:55 KBXK 111655Z AUTO RMK AO1
 
KIWA - Chandler/Mesa, Arizona, USA
Distance from station: SE 49mi, 78km
Updated: 12/11/2018 3:53pm
Mostly cloudy
Mostly cloudy
 Wind from calm
Wind: Calm
Temperature: 64°F , 18°C
Dew Point: 37°F , 3°C
Humidity: 37%
Barometer: 30.00 inHg , 1015.9 hPa
Clouds: Mostly cloudy
Visibility: 35 miles , 56 km
Cloud details: Mostly cloudy 10000 ft
2018/12/11 22:53 KIWA 112253Z 00000KT 35SM BKN100 18/03 A3000
KPAN - Payson, Arizona, USA
Distance from station: ENE 53mi, 85km
Updated: 12/11/2018 3:55pm
Clear
Clear
 Wind from varies
Wind: varies 3 mph , 6 km/h
Temperature: 55°F , 13°C
Dew Point: 28°F , -2°C
Humidity: 36%
Barometer: 30.12 inHg , 1020 hPa
Clouds: Clear
Visibility: 10 miles , 16 km
2018/12/11 22:55 KPAN 112255Z AUTO VRB03KT 10SM CLR 13/M02 A3012 RMK AO2
 
KPRC - Prescott, Arizona, USA
Distance from station: NNW 56mi, 90km
Updated: 12/11/2018 3:53pm
Clear
Clear
 Wind from SE
Wind: SE 10 mph , 17 km/h
Temperature: 61°F , 16°C
Dew Point: 28°F , -2°C
Humidity: 29%
Barometer: 30.09 inHg , 1019 hPa
Clouds: Clear
Visibility: 10 miles , 16 km
2018/12/11 22:53 KPRC 112253Z 14009KT 10SM CLR 16/M02 A3009 RMK AO2 SLP152 T01561022
KCGZ - Casa Granda, Arizona, USA
Distance from station: SSE 67mi, 109km
Updated: 12/11/2018 3:56pm
Clear
Clear
 Wind from calm
Wind: Calm
Temperature: 64°F , 18°C
Dew Point: 43°F , 6°C
Humidity: 46%
Barometer: 30.00 inHg , 1015.9 hPa
Clouds: Clear
Visibility: 10 miles , 16 km
2018/12/11 22:56 KCGZ 112256Z AUTO 00000KT 10SM CLR 18/06 A3000 RMK AO2 SLP154 T01830056 $
 
KSEZ - Sedona, Arizona, USA
Distance from station: NNE 70mi, 113km
Updated: 12/11/2018 3:55pm
Clear
Clear
 Wind from calm
Wind: Calm
Temperature: 61°F , 16°C
Dew Point: 30°F , -1°C
Humidity: 31%
Barometer: 30.10 inHg , 1019.3 hPa
Clouds: Clear
Visibility: 10 miles , 16 km
2018/12/11 22:55 KSEZ 112255Z AUTO 00000KT 10SM CLR 16/M01 A3010 RMK AO2
KGXF - Gila Bend (aaf), Arizona, USA
Distance from station: SSW 77mi, 124km
Updated: 12/11/2018 2:58pm
Mostly cloudy
Mostly cloudy
 Wind from calm
Wind: Calm
Temperature: 75°F , 24°C
Dew Point: 41°F , 5°C
Humidity: 29%
Barometer: 29.97 inHg , 1014.9 hPa
Clouds: Mostly cloudy
Visibility: 10 miles , 16 km
Cloud details: Partly cloudy 15000 ft
Mostly cloudy 18000 ft
2018/12/11 21:58 KGXF 112158Z 00000KT 10SM SCT150 BKN180 24/05 A2997 RMK AO2A SLPNO WND DATA ESTMD ALSTG ESTMD $
 
KP08 - Coolidge Muni, Arizona, USA
Distance from station: SSE 77mi, 124km
Updated: 12/11/2018 3:55pm
Clear
Clear
 Wind from calm
Wind: Calm
Temperature: 68°F , 20°C
Dew Point: 37°F , 3°C
Humidity: 33%
Barometer: 30.01 inHg , 1016.3 hPa
Clouds: Clear
Visibility: 10 miles , 16 km
2018/12/11 22:55 KP08 112255Z AUTO 00000KT 10SM CLR 20/03 A3001 RMK AO2
KFLG - Flagstaff, Arizona, USA
Distance from station: NNE 91mi, 146km
Updated: 12/11/2018 3:57pm
Clear
Clear
 Wind from S
Wind: S 7 mph , 11 km/h
Temperature: 50°F , 10°C
Wind Chill: 47°F , 8°C
Dew Point: 25°F , -4°C
Humidity: 37%
Barometer: 30.15 inHg , 1021 hPa
Clouds: Clear
Visibility: 10 miles , 16 km
2018/12/11 22:57 KFLG 112257Z 19006KT 10SM CLR 10/M04 A3015 RMK AO2 SLP174 T01001044
 
KCMR - Williams Clark, Arizona, USA
Distance from station: N 98mi, 158km
Updated: 12/11/2018 3:55pm
Clear
Clear
 Wind from S
Wind: S 7 mph , 11 km/h
Temperature: 52°F , 11°C
Dew Point: 21°F , -6°C
Humidity: 30%
Barometer: 30.12 inHg , 1020 hPa
Clouds: Clear
Visibility: 10 miles , 16 km
2018/12/11 22:55 KCMR 112255Z AUTO 19006KT 10SM CLR 11/M06 A3012 RMK AO2